sensor_id;sensor_type;location;lat;lon;timestamp;P1;durP1;ratioP1;P2;durP2;ratioP2
61689;SDS011;47601;52.086;4.878;2022-07-06T00:01:50;5.07;;;1.70;;
61689;SDS011;47601;52.086;4.878;2022-07-06T00:04:16;6.90;;;1.77;;
61689;SDS011;47601;52.086;4.878;2022-07-06T00:06:42;3.20;;;1.55;;
61689;SDS011;47601;52.086;4.878;2022-07-06T00:09:08;6.78;;;1.70;;
61689;SDS011;47601;52.086;4.878;2022-07-06T00:11:33;6.35;;;1.60;;
61689;SDS011;47601;52.086;4.878;2022-07-06T00:13:59;7.40;;;1.77;;
61689;SDS011;47601;52.086;4.878;2022-07-06T00:16:24;4.25;;;1.35;;
61689;SDS011;47601;52.086;4.878;2022-07-06T00:18:50;5.30;;;1.50;;
61689;SDS011;47601;52.086;4.878;2022-07-06T00:21:17;4.63;;;1.75;;
61689;SDS011;47601;52.086;4.878;2022-07-06T00:23:43;4.20;;;1.80;;
61689;SDS011;47601;52.086;4.878;2022-07-06T00:26:09;5.28;;;1.52;;
61689;SDS011;47601;52.086;4.878;2022-07-06T00:28:34;3.45;;;1.50;;
61689;SDS011;47601;52.086;4.878;2022-07-06T00:31:01;6.03;;;1.40;;
61689;SDS011;47601;52.086;4.878;2022-07-06T00:33:26;8.32;;;1.52;;
61689;SDS011;47601;52.086;4.878;2022-07-06T00:35:52;3.80;;;1.02;;
61689;SDS011;47601;52.086;4.878;2022-07-06T00:38:17;6.05;;;1.50;;
61689;SDS011;47601;52.086;4.878;2022-07-06T00:40:43;3.30;;;1.40;;
61689;SDS011;47601;52.086;4.878;2022-07-06T00:43:08;4.43;;;1.15;;
61689;SDS011;47601;52.086;4.878;2022-07-06T00:45:34;8.90;;;1.63;;
61689;SDS011;47601;52.086;4.878;2022-07-06T00:47:59;7.75;;;1.67;;
61689;SDS011;47601;52.086;4.878;2022-07-06T00:50:25;3.10;;;1.30;;
61689;SDS011;47601;52.086;4.878;2022-07-06T00:52:54;3.60;;;1.27;;
61689;SDS011;47601;52.086;4.878;2022-07-06T00:55:22;4.65;;;1.50;;
61689;SDS011;47601;52.086;4.878;2022-07-06T00:57:49;4.28;;;1.25;;
61689;SDS011;47601;52.086;4.878;2022-07-06T01:00:16;5.32;;;1.70;;
61689;SDS011;47601;52.086;4.878;2022-07-06T01:02:43;4.95;;;1.63;;
61689;SDS011;47601;52.086;4.878;2022-07-06T01:05:09;5.40;;;1.38;;
61689;SDS011;47601;52.086;4.878;2022-07-06T01:07:36;6.53;;;1.33;;
61689;SDS011;47601;52.086;4.878;2022-07-06T01:10:03;2.80;;;1.10;;
61689;SDS011;47601;52.086;4.878;2022-07-06T01:12:29;4.35;;;1.20;;
61689;SDS011;47601;52.086;4.878;2022-07-06T01:14:55;6.63;;;1.30;;
61689;SDS011;47601;52.086;4.878;2022-07-06T01:17:21;2.80;;;1.20;;
61689;SDS011;47601;52.086;4.878;2022-07-06T01:19:46;6.72;;;1.38;;
61689;SDS011;47601;52.086;4.878;2022-07-06T01:22:12;3.80;;;1.67;;
61689;SDS011;47601;52.086;4.878;2022-07-06T01:24:37;6.43;;;1.38;;
61689;SDS011;47601;52.086;4.878;2022-07-06T01:27:03;6.57;;;1.40;;
61689;SDS011;47601;52.086;4.878;2022-07-06T01:29:29;3.38;;;1.10;;
61689;SDS011;47601;52.086;4.878;2022-07-06T01:31:55;5.57;;;1.40;;
61689;SDS011;47601;52.086;4.878;2022-07-06T01:34:21;5.30;;;1.40;;
61689;SDS011;47601;52.086;4.878;2022-07-06T01:36:46;5.68;;;1.27;;
61689;SDS011;47601;52.086;4.878;2022-07-06T01:39:12;2.90;;;1.27;;
61689;SDS011;47601;52.086;4.878;2022-07-06T01:41:37;4.85;;;1.55;;
61689;SDS011;47601;52.086;4.878;2022-07-06T01:44:03;4.63;;;1.30;;
61689;SDS011;47601;52.086;4.878;2022-07-06T01:46:29;3.45;;;1.33;;
61689;SDS011;47601;52.086;4.878;2022-07-06T01:48:55;4.82;;;1.20;;
61689;SDS011;47601;52.086;4.878;2022-07-06T01:51:20;6.32;;;1.50;;
61689;SDS011;47601;52.086;4.878;2022-07-06T01:53:46;4.68;;;1.58;;
61689;SDS011;47601;52.086;4.878;2022-07-06T01:56:12;5.07;;;1.17;;
61689;SDS011;47601;52.086;4.878;2022-07-06T01:58:38;4.95;;;1.58;;
61689;SDS011;47601;52.086;4.878;2022-07-06T02:01:10;5.28;;;1.50;;
61689;SDS011;47601;52.086;4.878;2022-07-06T02:03:37;2.13;;;1.05;;
61689;SDS011;47601;52.086;4.878;2022-07-06T02:06:02;2.35;;;1.00;;
61689;SDS011;47601;52.086;4.878;2022-07-06T02:08:28;4.82;;;1.30;;
61689;SDS011;47601;52.086;4.878;2022-07-06T02:10:54;3.47;;;1.20;;
61689;SDS011;47601;52.086;4.878;2022-07-06T02:13:19;1.67;;;1.00;;
61689;SDS011;47601;52.086;4.878;2022-07-06T02:15:45;2.65;;;1.13;;
61689;SDS011;47601;52.086;4.878;2022-07-06T02:18:11;3.80;;;1.55;;
61689;SDS011;47601;52.086;4.878;2022-07-06T02:20:36;7.20;;;1.20;;
61689;SDS011;47601;52.086;4.878;2022-07-06T02:23:02;5.28;;;1.40;;
61689;SDS011;47601;52.086;4.878;2022-07-06T02:25:27;2.28;;;0.95;;
61689;SDS011;47601;52.086;4.878;2022-07-06T02:27:52;2.50;;;0.93;;
61689;SDS011;47601;52.086;4.878;2022-07-06T02:30:18;2.58;;;1.23;;
61689;SDS011;47601;52.086;4.878;2022-07-06T02:32:43;5.03;;;1.20;;
61689;SDS011;47601;52.086;4.878;2022-07-06T02:35:09;5.60;;;1.45;;
61689;SDS011;47601;52.086;4.878;2022-07-06T02:37:34;5.45;;;1.35;;
61689;SDS011;47601;52.086;4.878;2022-07-06T02:40:00;2.05;;;1.15;;
61689;SDS011;47601;52.086;4.878;2022-07-06T02:42:26;4.53;;;1.20;;
61689;SDS011;47601;52.086;4.878;2022-07-06T02:44:55;4.07;;;1.52;;
61689;SDS011;47601;52.086;4.878;2022-07-06T02:47:20;3.25;;;1.33;;
61689;SDS011;47601;52.086;4.878;2022-07-06T02:49:46;4.30;;;1.30;;
61689;SDS011;47601;52.086;4.878;2022-07-06T02:52:13;3.55;;;1.20;;
61689;SDS011;47601;52.086;4.878;2022-07-06T02:54:38;4.72;;;1.10;;
61689;SDS011;47601;52.086;4.878;2022-07-06T02:57:03;2.45;;;1.10;;
61689;SDS011;47601;52.086;4.878;2022-07-06T02:59:29;3.38;;;1.05;;
61689;SDS011;47601;52.086;4.878;2022-07-06T03:01:54;4.03;;;1.25;;
61689;SDS011;47601;52.086;4.878;2022-07-06T03:04:20;4.15;;;1.10;;
61689;SDS011;47601;52.086;4.878;2022-07-06T03:06:45;3.33;;;1.00;;
61689;SDS011;47601;52.086;4.878;2022-07-06T03:09:11;4.70;;;1.30;;
61689;SDS011;47601;52.086;4.878;2022-07-06T03:11:38;4.57;;;1.20;;
61689;SDS011;47601;52.086;4.878;2022-07-06T03:14:03;5.57;;;1.20;;
61689;SDS011;47601;52.086;4.878;2022-07-06T03:16:29;2.45;;;0.90;;
61689;SDS011;47601;52.086;4.878;2022-07-06T03:18:55;3.20;;;0.93;;
61689;SDS011;47601;52.086;4.878;2022-07-06T03:21:21;4.13;;;1.08;;
61689;SDS011;47601;52.086;4.878;2022-07-06T03:23:46;4.15;;;0.82;;
61689;SDS011;47601;52.086;4.878;2022-07-06T03:26:12;4.85;;;1.25;;
61689;SDS011;47601;52.086;4.878;2022-07-06T03:28:37;4.13;;;0.73;;
61689;SDS011;47601;52.086;4.878;2022-07-06T03:31:04;7.63;;;1.13;;
61689;SDS011;47601;52.086;4.878;2022-07-06T03:33:29;3.47;;;0.95;;
61689;SDS011;47601;52.086;4.878;2022-07-06T03:35:55;5.22;;;1.20;;
61689;SDS011;47601;52.086;4.878;2022-07-06T03:38:20;6.75;;;1.33;;
61689;SDS011;47601;52.086;4.878;2022-07-06T03:40:46;4.97;;;1.13;;
61689;SDS011;47601;52.086;4.878;2022-07-06T03:43:11;3.13;;;0.80;;
61689;SDS011;47601;52.086;4.878;2022-07-06T03:45:38;4.63;;;0.80;;
61689;SDS011;47601;52.086;4.878;2022-07-06T03:48:03;7.10;;;1.00;;
61689;SDS011;47601;52.086;4.878;2022-07-06T03:50:29;4.53;;;1.02;;
61689;SDS011;47601;52.086;4.878;2022-07-06T03:52:54;4.93;;;1.05;;
61689;SDS011;47601;52.086;4.878;2022-07-06T03:55:20;5.28;;;1.05;;
61689;SDS011;47601;52.086;4.878;2022-07-06T03:57:45;7.93;;;1.35;;
61689;SDS011;47601;52.086;4.878;2022-07-06T04:00:11;3.00;;;1.00;;
61689;SDS011;47601;52.086;4.878;2022-07-06T04:02:37;4.97;;;0.93;;
61689;SDS011;47601;52.086;4.878;2022-07-06T04:05:03;5.72;;;0.90;;
61689;SDS011;47601;52.086;4.878;2022-07-06T04:07:29;2.65;;;1.00;;
61689;SDS011;47601;52.086;4.878;2022-07-06T04:09:55;1.58;;;0.88;;
61689;SDS011;47601;52.086;4.878;2022-07-06T04:12:20;3.65;;;0.88;;
61689;SDS011;47601;52.086;4.878;2022-07-06T04:14:46;2.58;;;0.90;;
61689;SDS011;47601;52.086;4.878;2022-07-06T04:17:11;2.75;;;1.05;;
61689;SDS011;47601;52.086;4.878;2022-07-06T04:19:57;1.88;;;0.90;;
61689;SDS011;47601;52.086;4.878;2022-07-06T04:22:22;2.83;;;1.10;;
61689;SDS011;47601;52.086;4.878;2022-07-06T04:24:48;2.40;;;0.90;;
61689;SDS011;47601;52.086;4.878;2022-07-06T04:27:13;2.13;;;0.80;;
61689;SDS011;47601;52.086;4.878;2022-07-06T04:29:39;1.48;;;0.82;;
61689;SDS011;47601;52.086;4.878;2022-07-06T04:32:04;3.17;;;0.80;;
61689;SDS011;47601;52.086;4.878;2022-07-06T04:34:30;2.63;;;1.13;;
61689;SDS011;47601;52.086;4.878;2022-07-06T04:36:55;2.53;;;0.80;;
61689;SDS011;47601;52.086;4.878;2022-07-06T04:39:21;3.28;;;1.05;;
61689;SDS011;47601;52.086;4.878;2022-07-06T04:41:46;3.05;;;1.02;;
61689;SDS011;47601;52.086;4.878;2022-07-06T04:44:11;2.60;;;1.05;;
61689;SDS011;47601;52.086;4.878;2022-07-06T04:46:37;6.95;;;1.25;;
61689;SDS011;47601;52.086;4.878;2022-07-06T04:49:02;2.85;;;0.95;;
61689;SDS011;47601;52.086;4.878;2022-07-06T04:51:28;4.10;;;1.30;;
61689;SDS011;47601;52.086;4.878;2022-07-06T04:53:53;2.38;;;1.10;;
61689;SDS011;47601;52.086;4.878;2022-07-06T04:56:18;2.47;;;0.80;;
61689;SDS011;47601;52.086;4.878;2022-07-06T04:58:45;2.00;;;0.80;;
61689;SDS011;47601;52.086;4.878;2022-07-06T05:01:10;4.45;;;0.93;;
61689;SDS011;47601;52.086;4.878;2022-07-06T05:03:37;2.70;;;0.90;;
61689;SDS011;47601;52.086;4.878;2022-07-06T05:08:31;1.00;;;0.65;;
61689;SDS011;47601;52.086;4.878;2022-07-06T05:10:56;2.55;;;0.90;;
61689;SDS011;47601;52.086;4.878;2022-07-06T05:13:22;2.50;;;0.90;;
61689;SDS011;47601;52.086;4.878;2022-07-06T05:15:48;1.80;;;0.85;;
61689;SDS011;47601;52.086;4.878;2022-07-06T05:18:15;2.85;;;0.90;;
61689;SDS011;47601;52.086;4.878;2022-07-06T05:20:40;2.05;;;0.70;;
61689;SDS011;47601;52.086;4.878;2022-07-06T05:23:06;1.75;;;0.68;;
61689;SDS011;47601;52.086;4.878;2022-07-06T05:25:31;6.38;;;0.73;;
61689;SDS011;47601;52.086;4.878;2022-07-06T05:27:58;1.58;;;0.60;;
61689;SDS011;47601;52.086;4.878;2022-07-06T05:30:23;4.10;;;0.80;;
61689;SDS011;47601;52.086;4.878;2022-07-06T05:32:49;3.95;;;0.80;;
61689;SDS011;47601;52.086;4.878;2022-07-06T05:35:14;2.60;;;0.80;;
61689;SDS011;47601;52.086;4.878;2022-07-06T05:37:41;7.97;;;0.98;;
61689;SDS011;47601;52.086;4.878;2022-07-06T05:40:06;3.83;;;0.88;;
61689;SDS011;47601;52.086;4.878;2022-07-06T05:42:32;2.88;;;0.93;;
61689;SDS011;47601;52.086;4.878;2022-07-06T05:44:57;3.33;;;0.80;;
61689;SDS011;47601;52.086;4.878;2022-07-06T05:47:23;4.97;;;0.93;;
61689;SDS011;47601;52.086;4.878;2022-07-06T05:50:07;2.45;;;0.70;;
61689;SDS011;47601;52.086;4.878;2022-07-06T05:52:41;1.73;;;0.90;;
61689;SDS011;47601;52.086;4.878;2022-07-06T05:55:08;2.38;;;0.90;;
61689;SDS011;47601;52.086;4.878;2022-07-06T05:57:34;3.15;;;0.85;;
61689;SDS011;47601;52.086;4.878;2022-07-06T05:59:59;2.17;;;0.70;;
61689;SDS011;47601;52.086;4.878;2022-07-06T06:02:25;2.55;;;0.75;;
61689;SDS011;47601;52.086;4.878;2022-07-06T06:04:50;2.75;;;0.77;;
61689;SDS011;47601;52.086;4.878;2022-07-06T06:07:16;2.28;;;0.55;;
61689;SDS011;47601;52.086;4.878;2022-07-06T06:09:43;1.45;;;0.60;;
61689;SDS011;47601;52.086;4.878;2022-07-06T06:12:09;3.58;;;0.70;;
61689;SDS011;47601;52.086;4.878;2022-07-06T06:14:34;1.45;;;0.57;;
61689;SDS011;47601;52.086;4.878;2022-07-06T06:16:59;2.70;;;0.70;;
61689;SDS011;47601;52.086;4.878;2022-07-06T06:19:25;2.05;;;0.65;;
61689;SDS011;47601;52.086;4.878;2022-07-06T06:21:50;2.17;;;0.52;;
61689;SDS011;47601;52.086;4.878;2022-07-06T06:24:17;3.00;;;0.77;;
61689;SDS011;47601;52.086;4.878;2022-07-06T06:26:42;1.90;;;0.60;;
61689;SDS011;47601;52.086;4.878;2022-07-06T06:42:37;4.18;;;0.47;;
61689;SDS011;47601;52.086;4.878;2022-07-06T06:45:04;2.78;;;0.60;;
61689;SDS011;47601;52.086;4.878;2022-07-06T06:47:30;3.33;;;0.50;;
61689;SDS011;47601;52.086;4.878;2022-07-06T06:49:55;2.13;;;0.60;;
61689;SDS011;47601;52.086;4.878;2022-07-06T06:52:21;1.38;;;0.45;;
61689;SDS011;47601;52.086;4.878;2022-07-06T06:54:47;3.45;;;0.60;;
61689;SDS011;47601;52.086;4.878;2022-07-06T06:57:12;1.05;;;0.47;;
61689;SDS011;47601;52.086;4.878;2022-07-06T06:59:38;3.28;;;0.40;;
61689;SDS011;47601;52.086;4.878;2022-07-06T07:02:03;1.88;;;0.40;;
61689;SDS011;47601;52.086;4.878;2022-07-06T07:04:29;1.73;;;0.40;;
61689;SDS011;47601;52.086;4.878;2022-07-06T07:06:56;1.90;;;0.40;;
61689;SDS011;47601;52.086;4.878;2022-07-06T07:09:21;2.95;;;0.50;;
61689;SDS011;47601;52.086;4.878;2022-07-06T07:11:47;2.58;;;0.60;;
61689;SDS011;47601;52.086;4.878;2022-07-06T07:14:12;2.72;;;0.60;;
61689;SDS011;47601;52.086;4.878;2022-07-06T07:16:37;2.90;;;0.45;;
61689;SDS011;47601;52.086;4.878;2022-07-06T07:19:03;1.70;;;0.40;;
61689;SDS011;47601;52.086;4.878;2022-07-06T07:21:28;3.00;;;0.40;;
61689;SDS011;47601;52.086;4.878;2022-07-06T07:23:54;1.73;;;0.40;;
61689;SDS011;47601;52.086;4.878;2022-07-06T07:26:19;0.73;;;0.32;;
61689;SDS011;47601;52.086;4.878;2022-07-06T07:28:44;1.70;;;0.50;;
61689;SDS011;47601;52.086;4.878;2022-07-06T07:31:11;2.20;;;0.22;;
61689;SDS011;47601;52.086;4.878;2022-07-06T07:33:37;0.88;;;0.30;;
61689;SDS011;47601;52.086;4.878;2022-07-06T07:36:03;1.55;;;0.50;;
61689;SDS011;47601;52.086;4.878;2022-07-06T07:38:28;1.52;;;0.47;;
61689;SDS011;47601;52.086;4.878;2022-07-06T07:40:54;1.13;;;0.32;;
61689;SDS011;47601;52.086;4.878;2022-07-06T07:43:19;0.52;;;0.35;;
61689;SDS011;47601;52.086;4.878;2022-07-06T07:45:45;1.83;;;0.30;;
61689;SDS011;47601;52.086;4.878;2022-07-06T07:48:11;2.40;;;0.73;;
61689;SDS011;47601;52.086;4.878;2022-07-06T07:50:37;1.02;;;0.28;;
61689;SDS011;47601;52.086;4.878;2022-07-06T07:53:02;0.60;;;0.35;;
61689;SDS011;47601;52.086;4.878;2022-07-06T07:55:28;0.90;;;0.40;;
61689;SDS011;47601;52.086;4.878;2022-07-06T07:57:53;1.05;;;0.30;;
61689;SDS011;47601;52.086;4.878;2022-07-06T08:00:19;1.85;;;0.40;;
61689;SDS011;47601;52.086;4.878;2022-07-06T08:05:12;0.50;;;0.25;;
61689;SDS011;47601;52.086;4.878;2022-07-06T08:07:40;0.63;;;0.35;;
61689;SDS011;47601;52.086;4.878;2022-07-06T08:10:06;2.47;;;0.55;;
61689;SDS011;47601;52.086;4.878;2022-07-06T08:12:32;0.70;;;0.40;;
61689;SDS011;47601;52.086;4.878;2022-07-06T08:14:57;1.20;;;0.35;;
61689;SDS011;47601;52.086;4.878;2022-07-06T08:17:24;1.10;;;0.50;;
61689;SDS011;47601;52.086;4.878;2022-07-06T08:19:49;1.00;;;0.50;;
61689;SDS011;47601;52.086;4.878;2022-07-06T08:22:15;0.95;;;0.40;;
61689;SDS011;47601;52.086;4.878;2022-07-06T08:24:40;1.70;;;0.47;;
61689;SDS011;47601;52.086;4.878;2022-07-06T08:27:06;0.70;;;0.35;;
61689;SDS011;47601;52.086;4.878;2022-07-06T08:29:31;0.93;;;0.40;;
61689;SDS011;47601;52.086;4.878;2022-07-06T08:31:56;1.83;;;0.60;;
61689;SDS011;47601;52.086;4.878;2022-07-06T08:34:22;1.50;;;0.60;;
61689;SDS011;47601;52.086;4.878;2022-07-06T08:36:48;1.00;;;0.50;;
61689;SDS011;47601;52.086;4.878;2022-07-06T08:39:14;0.57;;;0.40;;
61689;SDS011;47601;52.086;4.878;2022-07-06T08:41:40;8.18;;;1.00;;
61689;SDS011;47601;52.086;4.878;2022-07-06T08:44:06;0.35;;;0.28;;
61689;SDS011;47601;52.086;4.878;2022-07-06T08:46:33;34.08;;;2.22;;
61689;SDS011;47601;52.086;4.878;2022-07-06T08:48:58;1.83;;;0.30;;
61689;SDS011;47601;52.086;4.878;2022-07-06T08:51:25;1.30;;;0.40;;
61689;SDS011;47601;52.086;4.878;2022-07-06T08:53:52;1.20;;;0.40;;
61689;SDS011;47601;52.086;4.878;2022-07-06T08:56:18;2.50;;;0.30;;
61689;SDS011;47601;52.086;4.878;2022-07-06T08:58:44;1.48;;;0.50;;
61689;SDS011;47601;52.086;4.878;2022-07-06T09:01:10;0.75;;;0.40;;
61689;SDS011;47601;52.086;4.878;2022-07-06T09:03:36;2.92;;;0.52;;
61689;SDS011;47601;52.086;4.878;2022-07-06T09:06:03;1.95;;;0.32;;
61689;SDS011;47601;52.086;4.878;2022-07-06T09:08:30;1.83;;;0.40;;
61689;SDS011;47601;52.086;4.878;2022-07-06T09:10:56;2.03;;;0.40;;
61689;SDS011;47601;52.086;4.878;2022-07-06T09:13:22;1.17;;;0.40;;
61689;SDS011;47601;52.086;4.878;2022-07-06T09:15:47;1.38;;;0.45;;
61689;SDS011;47601;52.086;4.878;2022-07-06T09:18:13;0.90;;;0.40;;
61689;SDS011;47601;52.086;4.878;2022-07-06T09:20:40;0.75;;;0.30;;
61689;SDS011;47601;52.086;4.878;2022-07-06T09:23:06;1.10;;;0.40;;
61689;SDS011;47601;52.086;4.878;2022-07-06T09:25:32;1.85;;;0.50;;
61689;SDS011;47601;52.086;4.878;2022-07-06T09:27:59;1.55;;;0.50;;
61689;SDS011;47601;52.086;4.878;2022-07-06T09:30:26;1.70;;;0.60;;
61689;SDS011;47601;52.086;4.878;2022-07-06T09:32:52;1.30;;;0.40;;
61689;SDS011;47601;52.086;4.878;2022-07-06T09:38:14;2.42;;;0.60;;
61689;SDS011;47601;52.086;4.878;2022-07-06T09:40:41;4.13;;;0.63;;
61689;SDS011;47601;52.086;4.878;2022-07-06T09:43:23;1.75;;;0.60;;
61689;SDS011;47601;52.086;4.878;2022-07-06T09:48:18;3.20;;;0.60;;
61689;SDS011;47601;52.086;4.878;2022-07-06T09:50:52;2.58;;;0.43;;
61689;SDS011;47601;52.086;4.878;2022-07-06T09:53:21;1.75;;;0.40;;
61689;SDS011;47601;52.086;4.878;2022-07-06T09:55:48;2.15;;;0.50;;
61689;SDS011;47601;52.086;4.878;2022-07-06T09:58:15;1.85;;;0.50;;
61689;SDS011;47601;52.086;4.878;2022-07-06T10:00:42;2.20;;;0.85;;
61689;SDS011;47601;52.086;4.878;2022-07-06T10:03:08;2.03;;;0.57;;
61689;SDS011;47601;52.086;4.878;2022-07-06T10:05:37;2.67;;;0.40;;
61689;SDS011;47601;52.086;4.878;2022-07-06T10:08:05;4.10;;;0.70;;
61689;SDS011;47601;52.086;4.878;2022-07-06T10:10:34;3.50;;;0.73;;
61689;SDS011;47601;52.086;4.878;2022-07-06T10:13:00;1.17;;;0.50;;
61689;SDS011;47601;52.086;4.878;2022-07-06T10:15:28;1.92;;;0.60;;
61689;SDS011;47601;52.086;4.878;2022-07-06T10:18:02;3.35;;;0.60;;
61689;SDS011;47601;52.086;4.878;2022-07-06T10:20:35;1.25;;;0.57;;
61689;SDS011;47601;52.086;4.878;2022-07-06T10:23:03;0.82;;;0.40;;
61689;SDS011;47601;52.086;4.878;2022-07-06T10:25:29;3.55;;;0.70;;
61689;SDS011;47601;52.086;4.878;2022-07-06T10:27:56;4.95;;;0.55;;
61689;SDS011;47601;52.086;4.878;2022-07-06T10:30:22;1.50;;;0.60;;
61689;SDS011;47601;52.086;4.878;2022-07-06T10:32:48;2.05;;;1.10;;
61689;SDS011;47601;52.086;4.878;2022-07-06T10:35:18;2.47;;;0.77;;
61689;SDS011;47601;52.086;4.878;2022-07-06T10:37:44;1.77;;;0.70;;
61689;SDS011;47601;52.086;4.878;2022-07-06T10:40:13;3.00;;;0.80;;
61689;SDS011;47601;52.086;4.878;2022-07-06T10:43:11;2.67;;;0.50;;
61689;SDS011;47601;52.086;4.878;2022-07-06T10:50:36;0.65;;;0.43;;
61689;SDS011;47601;52.086;4.878;2022-07-06T10:53:14;3.08;;;0.68;;
61689;SDS011;47601;52.086;4.878;2022-07-06T10:55:42;1.63;;;0.68;;
61689;SDS011;47601;52.086;4.878;2022-07-06T10:58:09;1.13;;;0.60;;
61689;SDS011;47601;52.086;4.878;2022-07-06T11:00:51;2.17;;;0.68;;
61689;SDS011;47601;52.086;4.878;2022-07-06T11:03:37;2.83;;;0.68;;
61689;SDS011;47601;52.086;4.878;2022-07-06T11:11:25;2.45;;;0.75;;
61689;SDS011;47601;52.086;4.878;2022-07-06T11:14:14;3.47;;;0.77;;
61689;SDS011;47601;52.086;4.878;2022-07-06T11:19:13;2.70;;;0.75;;
61689;SDS011;47601;52.086;4.878;2022-07-06T11:21:43;2.15;;;0.70;;
61689;SDS011;47601;52.086;4.878;2022-07-06T11:24:20;2.20;;;0.60;;
61689;SDS011;47601;52.086;4.878;2022-07-06T11:26:51;2.28;;;0.60;;
61689;SDS011;47601;52.086;4.878;2022-07-06T11:29:18;2.72;;;0.70;;
61689;SDS011;47601;52.086;4.878;2022-07-06T11:31:46;2.60;;;0.70;;
61689;SDS011;47601;52.086;4.878;2022-07-06T11:34:13;4.23;;;0.63;;
61689;SDS011;47601;52.086;4.878;2022-07-06T11:36:43;1.10;;;0.50;;
61689;SDS011;47601;52.086;4.878;2022-07-06T11:39:08;3.50;;;0.70;;
61689;SDS011;47601;52.086;4.878;2022-07-06T11:41:34;2.42;;;0.57;;
61689;SDS011;47601;52.086;4.878;2022-07-06T11:44:00;1.75;;;0.50;;
61689;SDS011;47601;52.086;4.878;2022-07-06T11:46:26;1.73;;;0.63;;
61689;SDS011;47601;52.086;4.878;2022-07-06T11:48:54;1.10;;;0.60;;
61689;SDS011;47601;52.086;4.878;2022-07-06T11:51:22;2.15;;;0.80;;
61689;SDS011;47601;52.086;4.878;2022-07-06T11:53:50;1.23;;;0.60;;
61689;SDS011;47601;52.086;4.878;2022-07-06T11:56:17;2.83;;;0.90;;
61689;SDS011;47601;52.086;4.878;2022-07-06T11:58:50;3.35;;;1.10;;
61689;SDS011;47601;52.086;4.878;2022-07-06T12:01:17;5.68;;;1.33;;
61689;SDS011;47601;52.086;4.878;2022-07-06T12:03:43;3.53;;;0.82;;
61689;SDS011;47601;52.086;4.878;2022-07-06T12:06:13;1.15;;;0.77;;
61689;SDS011;47601;52.086;4.878;2022-07-06T12:08:47;2.67;;;1.02;;
61689;SDS011;47601;52.086;4.878;2022-07-06T12:11:18;2.72;;;0.90;;
61689;SDS011;47601;52.086;4.878;2022-07-06T12:13:45;2.50;;;0.80;;
61689;SDS011;47601;52.086;4.878;2022-07-06T12:16:11;2.55;;;0.80;;
61689;SDS011;47601;52.086;4.878;2022-07-06T12:18:38;3.33;;;0.70;;
61689;SDS011;47601;52.086;4.878;2022-07-06T12:21:07;2.25;;;0.60;;
61689;SDS011;47601;52.086;4.878;2022-07-06T12:23:41;4.00;;;0.93;;
61689;SDS011;47601;52.086;4.878;2022-07-06T12:26:08;2.15;;;0.90;;
61689;SDS011;47601;52.086;4.878;2022-07-06T12:28:34;4.78;;;0.90;;
61689;SDS011;47601;52.086;4.878;2022-07-06T12:30:59;3.60;;;0.98;;
61689;SDS011;47601;52.086;4.878;2022-07-06T12:33:25;1.70;;;0.70;;
61689;SDS011;47601;52.086;4.878;2022-07-06T12:35:52;4.03;;;0.90;;
61689;SDS011;47601;52.086;4.878;2022-07-06T12:38:24;4.32;;;1.40;;
61689;SDS011;47601;52.086;4.878;2022-07-06T12:40:50;3.05;;;0.70;;
61689;SDS011;47601;52.086;4.878;2022-07-06T12:46:31;4.15;;;0.80;;
61689;SDS011;47601;52.086;4.878;2022-07-06T12:49:00;3.10;;;1.00;;
61689;SDS011;47601;52.086;4.878;2022-07-06T12:51:26;2.20;;;0.77;;
61689;SDS011;47601;52.086;4.878;2022-07-06T12:53:53;1.38;;;0.80;;
61689;SDS011;47601;52.086;4.878;2022-07-06T12:56:36;2.15;;;0.90;;
61689;SDS011;47601;52.086;4.878;2022-07-06T12:59:01;2.75;;;0.82;;
61689;SDS011;47601;52.086;4.878;2022-07-06T13:01:27;1.60;;;0.70;;
61689;SDS011;47601;52.086;4.878;2022-07-06T13:03:53;3.25;;;0.90;;
61689;SDS011;47601;52.086;4.878;2022-07-06T13:06:30;2.90;;;1.10;;
61689;SDS011;47601;52.086;4.878;2022-07-06T13:08:58;2.83;;;1.02;;
61689;SDS011;47601;52.086;4.878;2022-07-06T13:11:24;2.88;;;0.70;;
61689;SDS011;47601;52.086;4.878;2022-07-06T13:13:49;1.98;;;0.90;;
61689;SDS011;47601;52.086;4.878;2022-07-06T13:16:15;3.83;;;1.15;;
61689;SDS011;47601;52.086;4.878;2022-07-06T13:18:41;1.90;;;0.93;;
61689;SDS011;47601;52.086;4.878;2022-07-06T13:21:06;3.10;;;1.02;;
61689;SDS011;47601;52.086;4.878;2022-07-06T13:23:32;3.90;;;1.15;;
61689;SDS011;47601;52.086;4.878;2022-07-06T13:25:57;3.80;;;1.30;;
61689;SDS011;47601;52.086;4.878;2022-07-06T13:28:23;3.75;;;1.23;;
61689;SDS011;47601;52.086;4.878;2022-07-06T13:30:48;3.10;;;1.05;;
61689;SDS011;47601;52.086;4.878;2022-07-06T13:33:14;4.45;;;1.10;;
61689;SDS011;47601;52.086;4.878;2022-07-06T13:35:39;4.40;;;1.48;;
61689;SDS011;47601;52.086;4.878;2022-07-06T13:38:05;4.53;;;0.95;;
61689;SDS011;47601;52.086;4.878;2022-07-06T13:40:30;3.60;;;1.10;;
61689;SDS011;47601;52.086;4.878;2022-07-06T13:42:56;4.00;;;1.17;;
61689;SDS011;47601;52.086;4.878;2022-07-06T13:45:21;2.78;;;0.90;;
61689;SDS011;47601;52.086;4.878;2022-07-06T13:47:47;1.85;;;1.10;;
61689;SDS011;47601;52.086;4.878;2022-07-06T13:50:12;4.68;;;1.08;;
61689;SDS011;47601;52.086;4.878;2022-07-06T13:52:38;5.85;;;1.50;;
61689;SDS011;47601;52.086;4.878;2022-07-06T13:55:04;3.60;;;1.90;;
61689;SDS011;47601;52.086;4.878;2022-07-06T13:57:31;5.40;;;1.23;;
61689;SDS011;47601;52.086;4.878;2022-07-06T13:59:56;5.50;;;1.20;;
61689;SDS011;47601;52.086;4.878;2022-07-06T14:02:21;4.60;;;1.45;;
61689;SDS011;47601;52.086;4.878;2022-07-06T14:04:47;5.60;;;1.73;;
61689;SDS011;47601;52.086;4.878;2022-07-06T14:07:12;3.22;;;1.40;;
61689;SDS011;47601;52.086;4.878;2022-07-06T14:09:37;6.38;;;1.50;;
61689;SDS011;47601;52.086;4.878;2022-07-06T14:12:03;6.57;;;1.80;;
61689;SDS011;47601;52.086;4.878;2022-07-06T14:14:29;4.22;;;1.20;;
61689;SDS011;47601;52.086;4.878;2022-07-06T14:16:54;7.30;;;1.40;;
61689;SDS011;47601;52.086;4.878;2022-07-06T14:19:21;5.43;;;1.60;;
61689;SDS011;47601;52.086;4.878;2022-07-06T14:21:47;5.22;;;1.77;;
61689;SDS011;47601;52.086;4.878;2022-07-06T14:24:13;8.43;;;2.60;;
61689;SDS011;47601;52.086;4.878;2022-07-06T14:26:39;7.07;;;2.55;;
61689;SDS011;47601;52.086;4.878;2022-07-06T14:29:05;6.65;;;2.75;;
61689;SDS011;47601;52.086;4.878;2022-07-06T14:31:30;6.38;;;2.45;;
61689;SDS011;47601;52.086;4.878;2022-07-06T14:33:56;4.50;;;2.28;;
61689;SDS011;47601;52.086;4.878;2022-07-06T14:36:21;4.60;;;2.25;;
61689;SDS011;47601;52.086;4.878;2022-07-06T14:38:46;9.77;;;3.70;;
61689;SDS011;47601;52.086;4.878;2022-07-06T14:41:12;9.80;;;3.20;;
61689;SDS011;47601;52.086;4.878;2022-07-06T14:43:37;6.95;;;4.53;;
61689;SDS011;47601;52.086;4.878;2022-07-06T14:46:03;8.45;;;4.07;;
61689;SDS011;47601;52.086;4.878;2022-07-06T14:48:29;10.10;;;4.03;;
61689;SDS011;47601;52.086;4.878;2022-07-06T14:50:54;8.20;;;4.00;;
61689;SDS011;47601;52.086;4.878;2022-07-06T14:53:19;17.98;;;13.32;;
61689;SDS011;47601;52.086;4.878;2022-07-06T14:55:45;10.88;;;4.50;;
61689;SDS011;47601;52.086;4.878;2022-07-06T15:00:38;5.80;;;2.50;;
61689;SDS011;47601;52.086;4.878;2022-07-06T15:03:03;6.20;;;2.35;;
61689;SDS011;47601;52.086;4.878;2022-07-06T15:05:29;6.22;;;2.35;;
61689;SDS011;47601;52.086;4.878;2022-07-06T15:07:56;8.15;;;2.47;;
61689;SDS011;47601;52.086;4.878;2022-07-06T15:10:21;8.05;;;2.10;;
61689;SDS011;47601;52.086;4.878;2022-07-06T15:12:47;4.28;;;2.05;;
61689;SDS011;47601;52.086;4.878;2022-07-06T15:15:12;5.90;;;2.50;;
61689;SDS011;47601;52.086;4.878;2022-07-06T15:17:38;5.53;;;2.45;;
61689;SDS011;47601;52.086;4.878;2022-07-06T15:20:04;4.63;;;2.60;;
61689;SDS011;47601;52.086;4.878;2022-07-06T15:22:30;5.13;;;2.55;;
61689;SDS011;47601;52.086;4.878;2022-07-06T15:24:55;5.85;;;2.72;;
61689;SDS011;47601;52.086;4.878;2022-07-06T15:27:21;9.75;;;3.05;;